SWA4021 KBWI-KROC
Flight info
| Callsign | SWA4021 |
|---|---|
| Flight time | 0h 55m |
| Altitude | 29000 |
| Route | LINSE2 JERES Q227 STUBN DCT GIBBE DCT |
| Aircraft | B737/M-SDE2E3FGHIRWXY/LB1 |
Departure
| Time | 2026-05-07 21:17 |
|---|---|
| Airport | Baltimore/Washington International Thurgood Marshall Airport (KBWI) |
Arrival
| Time | 2026-05-07 22:13 |
|---|---|
| Airport | Frederick Douglass Greater Rochester International Airport (KROC) |
| Time | Latitude | Longitude | Altitude | Speed | Heading |
|---|---|---|---|---|---|
| 2026-05-07 20:52 | 39.17754 | -76.67086 | 150 ft | 0 kts | 79° |
| 2026-05-07 21:07 | 39.17751 | -76.67106 | 150 ft | 4 kts | 70° |
| 2026-05-07 21:08 | 39.17738 | -76.67136 | 151 ft | 4 kts | 43° |
| 2026-05-07 21:08 | 39.17716 | -76.67151 | 152 ft | 4 kts | 353° |
| 2026-05-07 21:08 | 39.17703 | -76.67145 | 153 ft | 3 kts | 324° |
| 2026-05-07 21:08 | 39.17702 | -76.67144 | 153 ft | 2 kts | 324° |
| 2026-05-07 21:10 | 39.17702 | -76.67143 | 153 ft | 0 kts | 324° |
| 2026-05-07 21:11 | 39.17702 | -76.67144 | 153 ft | 1 kts | 324° |
| 2026-05-07 21:12 | 39.17722 | -76.67162 | 153 ft | 7 kts | 323° |
| 2026-05-07 21:12 | 39.17776 | -76.67215 | 153 ft | 12 kts | 322° |
| 2026-05-07 21:12 | 39.17855 | -76.67289 | 151 ft | 17 kts | 324° |
| 2026-05-07 21:12 | 39.17882 | -76.67400 | 151 ft | 12 kts | 277° |
| 2026-05-07 21:13 | 39.17947 | -76.67478 | 153 ft | 14 kts | 324° |
| 2026-05-07 21:13 | 39.18033 | -76.67557 | 153 ft | 17 kts | 324° |
| 2026-05-07 21:13 | 39.18139 | -76.67656 | 155 ft | 20 kts | 324° |
| 2026-05-07 21:13 | 39.18257 | -76.67769 | 155 ft | 23 kts | 323° |
| 2026-05-07 21:14 | 39.18390 | -76.67888 | 155 ft | 17 kts | 324° |
| 2026-05-07 21:14 | 39.18495 | -76.67987 | 155 ft | 21 kts | 324° |
| 2026-05-07 21:14 | 39.18553 | -76.68043 | 155 ft | 15 kts | 316° |
| 2026-05-07 21:14 | 39.18572 | -76.68082 | 154 ft | 0 kts | 281° |
| 2026-05-07 21:15 | 39.18573 | -76.68095 | 154 ft | 4 kts | 276° |
| 2026-05-07 21:15 | 39.18560 | -76.68142 | 154 ft | 8 kts | 233° |
| 2026-05-07 21:15 | 39.18503 | -76.68169 | 154 ft | 11 kts | 151° |
| 2026-05-07 21:16 | 39.18493 | -76.68159 | 154 ft | 0 kts | 142° |
| 2026-05-07 21:16 | 39.18397 | -76.68069 | 155 ft | 49 kts | 144° |
| 2026-05-07 21:16 | 39.17930 | -76.67638 | 156 ft | 114 kts | 144° |
| 2026-05-07 21:17 | 39.17151 | -76.66913 | 219 ft | 157 kts | 144° |
| 2026-05-07 21:17 | 39.16215 | -76.66054 | 717 ft | 169 kts | 145° |
| 2026-05-07 21:17 | 39.15215 | -76.65209 | 1375 ft | 177 kts | 152° |
| 2026-05-07 21:17 | 39.13961 | -76.64613 | 1658 ft | 212 kts | 169° |
| 2026-05-07 21:18 | 39.12387 | -76.64646 | 1655 ft | 248 kts | 200° |
| 2026-05-07 21:18 | 39.10984 | -76.66049 | 1972 ft | 265 kts | 240° |
| 2026-05-07 21:18 | 39.10632 | -76.68222 | 3258 ft | 236 kts | 281° |
| 2026-05-07 21:18 | 39.11346 | -76.69935 | 4590 ft | 212 kts | 319° |
| 2026-05-07 21:19 | 39.12714 | -76.70695 | 5049 ft | 227 kts | 354° |
| 2026-05-07 21:19 | 39.14291 | -76.71139 | 5273 ft | 247 kts | 330° |
| 2026-05-07 21:19 | 39.15729 | -76.72556 | 5328 ft | 274 kts | 320° |
| 2026-05-07 21:19 | 39.17231 | -76.74136 | 6165 ft | 277 kts | 321° |
| 2026-05-07 21:20 | 39.18532 | -76.75843 | 7588 ft | 256 kts | 301° |
| 2026-05-07 21:20 | 39.19284 | -76.77798 | 8908 ft | 239 kts | 287° |
| 2026-05-07 21:20 | 39.19666 | -76.79883 | 8949 ft | 235 kts | 278° |
| 2026-05-07 21:20 | 39.19770 | -76.81952 | 9014 ft | 230 kts | 270° |
| 2026-05-07 21:21 | 39.19738 | -76.83988 | 9082 ft | 230 kts | 269° |
| 2026-05-07 21:21 | 39.19711 | -76.86056 | 9767 ft | 228 kts | 270° |
| 2026-05-07 21:21 | 39.19696 | -76.88065 | 10941 ft | 221 kts | 269° |
| 2026-05-07 21:21 | 39.19688 | -76.90065 | 11914 ft | 224 kts | 268° |
| 2026-05-07 21:22 | 39.19684 | -76.92092 | 12867 ft | 227 kts | 266° |
| 2026-05-07 21:22 | 39.19682 | -76.94149 | 13653 ft | 230 kts | 265° |
| 2026-05-07 21:22 | 39.19681 | -76.96203 | 13974 ft | 230 kts | 266° |
| 2026-05-07 21:22 | 39.19772 | -76.98245 | 14020 ft | 237 kts | 273° |
| 2026-05-07 21:23 | 39.20098 | -77.00450 | 14019 ft | 257 kts | 276° |
| 2026-05-07 21:23 | 39.20480 | -77.02744 | 14037 ft | 264 kts | 276° |
| 2026-05-07 21:23 | 39.20865 | -77.05096 | 14092 ft | 278 kts | 276° |
| 2026-05-07 21:23 | 39.21266 | -77.07656 | 14409 ft | 301 kts | 276° |
| 2026-05-07 21:24 | 39.21601 | -77.09803 | 15088 ft | 304 kts | 276° |
| 2026-05-07 21:24 | 39.22157 | -77.12456 | 16096 ft | 311 kts | 287° |
| 2026-05-07 21:24 | 39.23254 | -77.14877 | 17063 ft | 324 kts | 301° |
| 2026-05-07 21:24 | 39.24874 | -77.16996 | 17972 ft | 337 kts | 309° |
| 2026-05-07 21:25 | 39.26672 | -77.18976 | 18784 ft | 343 kts | 311° |
| 2026-05-07 21:25 | 39.28522 | -77.20942 | 19590 ft | 346 kts | 311° |
| 2026-05-07 21:25 | 39.30376 | -77.22929 | 20296 ft | 352 kts | 311° |
| 2026-05-07 21:25 | 39.32275 | -77.25004 | 20996 ft | 357 kts | 310° |
| 2026-05-07 21:26 | 39.34175 | -77.27103 | 21732 ft | 361 kts | 310° |
| 2026-05-07 21:26 | 39.36099 | -77.29230 | 22463 ft | 366 kts | 311° |
| 2026-05-07 21:26 | 39.38293 | -77.31054 | 23164 ft | 386 kts | 324° |
| 2026-05-07 21:26 | 39.40736 | -77.32439 | 23834 ft | 391 kts | 327° |
| 2026-05-07 21:27 | 39.43279 | -77.33811 | 24454 ft | 394 kts | 327° |
| 2026-05-07 21:27 | 39.45826 | -77.35183 | 25061 ft | 396 kts | 326° |
| 2026-05-07 21:27 | 39.48375 | -77.36575 | 25653 ft | 399 kts | 326° |
| 2026-05-07 21:27 | 39.50932 | -77.37992 | 26227 ft | 401 kts | 326° |
| 2026-05-07 21:28 | 39.53465 | -77.39407 | 26840 ft | 402 kts | 325° |
| 2026-05-07 21:28 | 39.56040 | -77.40848 | 27655 ft | 398 kts | 325° |
| 2026-05-07 21:28 | 39.58568 | -77.42265 | 28461 ft | 395 kts | 324° |
| 2026-05-07 21:28 | 39.61078 | -77.43679 | 28836 ft | 393 kts | 324° |
| 2026-05-07 21:29 | 39.63629 | -77.45020 | 28865 ft | 404 kts | 331° |
| 2026-05-07 21:29 | 39.66449 | -77.45622 | 28873 ft | 425 kts | 345° |
| 2026-05-07 21:29 | 39.72432 | -77.45535 | 28865 ft | 432 kts | 349° |
| 2026-05-07 21:30 | 39.78445 | -77.45308 | 28885 ft | 431 kts | 349° |
| 2026-05-07 21:30 | 39.84422 | -77.45174 | 28877 ft | 430 kts | 348° |
| 2026-05-07 21:31 | 39.90401 | -77.45082 | 28885 ft | 429 kts | 348° |
| 2026-05-07 21:31 | 39.96353 | -77.44987 | 28874 ft | 428 kts | 348° |
| 2026-05-07 21:32 | 40.02314 | -77.44872 | 28892 ft | 428 kts | 348° |
| 2026-05-07 21:32 | 40.08279 | -77.44751 | 28896 ft | 428 kts | 348° |
| 2026-05-07 21:33 | 40.14244 | -77.44633 | 28893 ft | 428 kts | 348° |
| 2026-05-07 21:33 | 40.20211 | -77.44523 | 28887 ft | 429 kts | 348° |
| 2026-05-07 21:34 | 40.26150 | -77.44424 | 28885 ft | 429 kts | 348° |
| 2026-05-07 21:34 | 40.32120 | -77.44324 | 28893 ft | 429 kts | 348° |
| 2026-05-07 21:35 | 40.38105 | -77.44223 | 28885 ft | 430 kts | 348° |
| 2026-05-07 21:35 | 40.44060 | -77.44121 | 28878 ft | 430 kts | 348° |
| 2026-05-07 21:36 | 40.50035 | -77.44018 | 28878 ft | 430 kts | 348° |
| 2026-05-07 21:36 | 40.56018 | -77.43915 | 28873 ft | 430 kts | 348° |
| 2026-05-07 21:37 | 40.61986 | -77.43813 | 28874 ft | 431 kts | 348° |
| 2026-05-07 21:37 | 40.67990 | -77.43746 | 28875 ft | 430 kts | 348° |
| 2026-05-07 21:38 | 40.73971 | -77.43587 | 28867 ft | 439 kts | 354° |
| 2026-05-07 21:38 | 40.77027 | -77.42880 | 28886 ft | 450 kts | 1° |
| 2026-05-07 21:38 | 40.80097 | -77.41912 | 28873 ft | 453 kts | 2° |
| 2026-05-07 21:39 | 40.86211 | -77.39921 | 28877 ft | 452 kts | 1° |
| 2026-05-07 21:39 | 40.92339 | -77.38059 | 28877 ft | 451 kts | 1° |
| 2026-05-07 21:40 | 40.98428 | -77.36250 | 28884 ft | 451 kts | 1° |
| 2026-05-07 21:40 | 41.04580 | -77.34421 | 28874 ft | 452 kts | 1° |
| 2026-05-07 21:41 | 41.10714 | -77.32588 | 28868 ft | 452 kts | 1° |
| 2026-05-07 21:41 | 41.16850 | -77.30748 | 28881 ft | 452 kts | 1° |
| 2026-05-07 21:42 | 41.23006 | -77.28899 | 28867 ft | 453 kts | 1° |
| 2026-05-07 21:42 | 41.29139 | -77.27053 | 28864 ft | 454 kts | 1° |
| 2026-05-07 21:43 | 41.35320 | -77.25188 | 28866 ft | 454 kts | 1° |
| 2026-05-07 21:43 | 41.41457 | -77.23334 | 28868 ft | 455 kts | 1° |
| 2026-05-07 21:44 | 41.47638 | -77.21462 | 28879 ft | 455 kts | 1° |
| 2026-05-07 21:44 | 41.53828 | -77.19584 | 28887 ft | 455 kts | 1° |
| 2026-05-07 21:45 | 41.60005 | -77.17706 | 28894 ft | 455 kts | 1° |
| 2026-05-07 21:45 | 41.66156 | -77.15833 | 28888 ft | 455 kts | 1° |
| 2026-05-07 21:46 | 41.72317 | -77.13940 | 28887 ft | 455 kts | 1° |
| 2026-05-07 21:46 | 41.78468 | -77.12029 | 28894 ft | 455 kts | 1° |
| 2026-05-07 21:47 | 41.84667 | -77.10109 | 28888 ft | 455 kts | 1° |
| 2026-05-07 21:47 | 41.90816 | -77.08225 | 28900 ft | 456 kts | 1° |
| 2026-05-07 21:48 | 41.97009 | -77.06325 | 28894 ft | 457 kts | 1° |
| 2026-05-07 21:48 | 42.03167 | -77.04419 | 28559 ft | 447 kts | 0° |
| 2026-05-07 21:49 | 42.06192 | -77.03485 | 27839 ft | 447 kts | 1° |
| 2026-05-07 21:49 | 42.09245 | -77.02598 | 26893 ft | 446 kts | 358° |
| 2026-05-07 21:49 | 42.12271 | -77.02188 | 25892 ft | 441 kts | 351° |
| 2026-05-07 21:49 | 42.15359 | -77.02022 | 24958 ft | 443 kts | 350° |
| 2026-05-07 21:50 | 42.18431 | -77.01905 | 24261 ft | 440 kts | 350° |
| 2026-05-07 21:50 | 42.21468 | -77.01783 | 23683 ft | 434 kts | 351° |
| 2026-05-07 21:50 | 42.24475 | -77.01647 | 23012 ft | 430 kts | 351° |
| 2026-05-07 21:50 | 42.27416 | -77.01499 | 22392 ft | 424 kts | 352° |
| 2026-05-07 21:51 | 42.30313 | -77.01335 | 22284 ft | 406 kts | 352° |
| 2026-05-07 21:51 | 42.33088 | -77.01174 | 22003 ft | 395 kts | 352° |
| 2026-05-07 21:51 | 42.35822 | -77.01026 | 21454 ft | 391 kts | 352° |
| 2026-05-07 21:51 | 42.38535 | -77.00885 | 20881 ft | 389 kts | 352° |
| 2026-05-07 21:52 | 42.41230 | -77.00742 | 20375 ft | 385 kts | 353° |
| 2026-05-07 21:52 | 42.43895 | -77.00597 | 19898 ft | 381 kts | 353° |
| 2026-05-07 21:52 | 42.46496 | -77.00448 | 19790 ft | 365 kts | 353° |
| 2026-05-07 21:52 | 42.48984 | -77.00306 | 19689 ft | 349 kts | 351° |
| 2026-05-07 21:53 | 42.51258 | -77.00780 | 19578 ft | 315 kts | 329° |
| 2026-05-07 21:53 | 42.53073 | -77.02135 | 19318 ft | 292 kts | 313° |
| 2026-05-07 21:53 | 42.54503 | -77.04002 | 18887 ft | 281 kts | 300° |
| 2026-05-07 21:53 | 42.55581 | -77.06191 | 18439 ft | 277 kts | 294° |
| 2026-05-07 21:54 | 42.56544 | -77.08462 | 17999 ft | 277 kts | 293° |
| 2026-05-07 21:54 | 42.57477 | -77.10736 | 17588 ft | 274 kts | 293° |
| 2026-05-07 21:54 | 42.58390 | -77.12962 | 17192 ft | 272 kts | 293° |
| 2026-05-07 21:54 | 42.59311 | -77.15196 | 16792 ft | 270 kts | 294° |
| 2026-05-07 21:55 | 42.60163 | -77.17255 | 16410 ft | 268 kts | 294° |
| 2026-05-07 21:55 | 42.61066 | -77.19429 | 16018 ft | 267 kts | 294° |
| 2026-05-07 21:55 | 42.61976 | -77.21613 | 15620 ft | 265 kts | 294° |
| 2026-05-07 21:55 | 42.62880 | -77.23779 | 15233 ft | 263 kts | 295° |
| 2026-05-07 21:56 | 42.63782 | -77.25939 | 14848 ft | 262 kts | 295° |
| 2026-05-07 21:56 | 42.64680 | -77.28089 | 14481 ft | 260 kts | 295° |
| 2026-05-07 21:56 | 42.65570 | -77.30219 | 14109 ft | 259 kts | 295° |
| 2026-05-07 21:56 | 42.66457 | -77.32343 | 13767 ft | 257 kts | 295° |
| 2026-05-07 21:57 | 42.67336 | -77.34449 | 13328 ft | 257 kts | 295° |
| 2026-05-07 21:57 | 42.68218 | -77.36563 | 12926 ft | 256 kts | 296° |
| 2026-05-07 21:57 | 42.69083 | -77.38634 | 12737 ft | 246 kts | 295° |
| 2026-05-07 21:57 | 42.69898 | -77.40580 | 12659 ft | 228 kts | 295° |
| 2026-05-07 21:58 | 42.70658 | -77.42394 | 12524 ft | 214 kts | 295° |
| 2026-05-07 21:58 | 42.71390 | -77.44154 | 12036 ft | 214 kts | 294° |
| 2026-05-07 21:58 | 42.72105 | -77.45875 | 11712 ft | 209 kts | 294° |
| 2026-05-07 21:58 | 42.72821 | -77.47601 | 11277 ft | 210 kts | 294° |
| 2026-05-07 21:59 | 42.73541 | -77.49337 | 10885 ft | 210 kts | 294° |
| 2026-05-07 21:59 | 42.74246 | -77.51034 | 10726 ft | 199 kts | 294° |
| 2026-05-07 21:59 | 42.74907 | -77.52621 | 10601 ft | 186 kts | 293° |
| 2026-05-07 21:59 | 42.75524 | -77.54103 | 10440 ft | 176 kts | 293° |
| 2026-05-07 22:00 | 42.76121 | -77.55545 | 10140 ft | 174 kts | 292° |
| 2026-05-07 22:00 | 42.76706 | -77.56961 | 9806 ft | 174 kts | 292° |
| 2026-05-07 22:00 | 42.77297 | -77.58393 | 9505 ft | 173 kts | 293° |
| 2026-05-07 22:00 | 42.77866 | -77.59832 | 9162 ft | 171 kts | 284° |
| 2026-05-07 22:01 | 42.78073 | -77.61415 | 8819 ft | 168 kts | 274° |
| 2026-05-07 22:01 | 42.78210 | -77.62981 | 8454 ft | 168 kts | 274° |
| 2026-05-07 22:01 | 42.78426 | -77.64551 | 8094 ft | 170 kts | 281° |
| 2026-05-07 22:01 | 42.78764 | -77.66091 | 7751 ft | 173 kts | 293° |
| 2026-05-07 22:02 | 42.79628 | -77.67280 | 7397 ft | 180 kts | 316° |
| 2026-05-07 22:02 | 42.80578 | -77.68353 | 7090 ft | 176 kts | 303° |
| 2026-05-07 22:02 | 42.81104 | -77.69831 | 6744 ft | 172 kts | 293° |
| 2026-05-07 22:02 | 42.81690 | -77.71244 | 6425 ft | 174 kts | 296° |
| 2026-05-07 22:03 | 42.82173 | -77.72734 | 6078 ft | 171 kts | 278° |
| 2026-05-07 22:03 | 42.82359 | -77.74325 | 5713 ft | 171 kts | 278° |
| 2026-05-07 22:03 | 42.82542 | -77.75930 | 5395 ft | 170 kts | 278° |
| 2026-05-07 22:03 | 42.82712 | -77.77527 | 5067 ft | 171 kts | 278° |
| 2026-05-07 22:04 | 42.82867 | -77.79137 | 4757 ft | 170 kts | 278° |
| 2026-05-07 22:04 | 42.83009 | -77.80730 | 4368 ft | 174 kts | 278° |
| 2026-05-07 22:04 | 42.83150 | -77.82356 | 4101 ft | 170 kts | 278° |
| 2026-05-07 22:04 | 42.83244 | -77.83431 | 3880 ft | 170 kts | 278° |
| 2026-05-07 22:05 | 42.83471 | -77.84989 | 3512 ft | 170 kts | 300° |
| 2026-05-07 22:05 | 42.84395 | -77.85892 | 3164 ft | 172 kts | 350° |
| 2026-05-07 22:05 | 42.85593 | -77.85820 | 2838 ft | 174 kts | 2° |
| 2026-05-07 22:05 | 42.86801 | -77.85556 | 2491 ft | 175 kts | 11° |
| 2026-05-07 22:06 | 42.87966 | -77.85118 | 2218 ft | 173 kts | 12° |
| 2026-05-07 22:06 | 42.89112 | -77.84669 | 2040 ft | 169 kts | 12° |
| 2026-05-07 22:06 | 42.90242 | -77.84218 | 2025 ft | 168 kts | 12° |
| 2026-05-07 22:06 | 42.91365 | -77.83780 | 2014 ft | 167 kts | 12° |
| 2026-05-07 22:07 | 42.92472 | -77.83355 | 2026 ft | 167 kts | 11° |
| 2026-05-07 22:07 | 42.93588 | -77.82906 | 2026 ft | 166 kts | 17° |
| 2026-05-07 22:07 | 42.94638 | -77.82188 | 2014 ft | 168 kts | 22° |
| 2026-05-07 22:07 | 42.95663 | -77.81419 | 2004 ft | 167 kts | 26° |
| 2026-05-07 22:08 | 42.96673 | -77.80600 | 2013 ft | 170 kts | 26° |
| 2026-05-07 22:08 | 42.97687 | -77.79755 | 2023 ft | 173 kts | 27° |
| 2026-05-07 22:08 | 42.98722 | -77.78885 | 2011 ft | 172 kts | 27° |
| 2026-05-07 22:08 | 42.99717 | -77.78041 | 2010 ft | 169 kts | 28° |
| 2026-05-07 22:09 | 43.00662 | -77.77242 | 1978 ft | 153 kts | 28° |
| 2026-05-07 22:09 | 43.01504 | -77.76528 | 1954 ft | 136 kts | 26° |
| 2026-05-07 22:09 | 43.02299 | -77.75858 | 2036 ft | 136 kts | 28° |
| 2026-05-07 22:09 | 43.03117 | -77.75168 | 2014 ft | 137 kts | 26° |
| 2026-05-07 22:10 | 43.03922 | -77.74488 | 1993 ft | 136 kts | 27° |
| 2026-05-07 22:10 | 43.04707 | -77.73823 | 1958 ft | 132 kts | 27° |
| 2026-05-07 22:10 | 43.05506 | -77.73148 | 1817 ft | 135 kts | 26° |
| 2026-05-07 22:10 | 43.06293 | -77.72483 | 1636 ft | 131 kts | 26° |
| 2026-05-07 22:11 | 43.07064 | -77.71835 | 1427 ft | 128 kts | 28° |
| 2026-05-07 22:11 | 43.07807 | -77.71190 | 1282 ft | 125 kts | 31° |
| 2026-05-07 22:11 | 43.08533 | -77.70565 | 1099 ft | 123 kts | 27° |
| 2026-05-07 22:11 | 43.09272 | -77.69971 | 947 ft | 123 kts | 31° |
| 2026-05-07 22:12 | 43.10002 | -77.69335 | 771 ft | 125 kts | 31° |
| 2026-05-07 22:12 | 43.10739 | -77.68721 | 588 ft | 125 kts | 30° |
| 2026-05-07 22:12 | 43.11441 | -77.68138 | 547 ft | 106 kts | 31° |
| 2026-05-07 22:12 | 43.11905 | -77.67748 | 559 ft | 61 kts | 31° |
| 2026-05-07 22:13 | 43.12164 | -77.67528 | 564 ft | 29 kts | 31° |
| 2026-05-07 22:13 | 43.12288 | -77.67370 | 558 ft | 20 kts | 84° |
| 2026-05-07 22:13 | 43.12340 | -77.67206 | 562 ft | 19 kts | 31° |
| 2026-05-07 22:13 | 43.12436 | -77.67128 | 566 ft | 13 kts | 31° |
| 2026-05-07 22:14 | 43.12452 | -77.67114 | 567 ft | 0 kts | 32° |
| 2026-05-07 22:17 | 43.12456 | -77.67111 | 567 ft | 1 kts | 32° |
| 2026-05-07 22:17 | 43.12468 | -77.67101 | 568 ft | 3 kts | 32° |
| 2026-05-07 22:17 | 43.12490 | -77.67079 | 570 ft | 5 kts | 43° |
| 2026-05-07 22:18 | 43.12507 | -77.67024 | 564 ft | 8 kts | 79° |
| 2026-05-07 22:18 | 43.12516 | -77.66773 | 559 ft | 17 kts | 86° |
| 2026-05-07 22:18 | 43.12534 | -77.66611 | 563 ft | 15 kts | 45° |
| 2026-05-07 22:19 | 43.12609 | -77.66558 | 562 ft | 6 kts | 24° |
| 2026-05-07 22:19 | 43.12649 | -77.66571 | 558 ft | 6 kts | 308° |
| 2026-05-07 22:19 | 43.12656 | -77.66588 | 565 ft | 1 kts | 302° |
| 2026-05-07 22:19 | 43.12659 | -77.66593 | 567 ft | 0 kts | 302° |
| 2026-05-07 22:20 | 43.12660 | -77.66595 | 567 ft | 0 kts | 302° |